sensor_id;sensor_type;location;lat;lon;timestamp;P1;durP1;ratioP1;P2;durP2;ratioP2
33706;SDS011;20583;50.960;5.332;2022-07-23T00:00:49;5.65;;;2.80;;
33706;SDS011;20583;50.960;5.332;2022-07-23T00:03:15;4.57;;;2.83;;
33706;SDS011;20583;50.960;5.332;2022-07-23T00:05:41;7.18;;;2.95;;
33706;SDS011;20583;50.960;5.332;2022-07-23T00:08:07;3.88;;;2.42;;
33706;SDS011;20583;50.960;5.332;2022-07-23T00:10:33;6.05;;;2.70;;
33706;SDS011;20583;50.960;5.332;2022-07-23T00:12:59;6.30;;;2.47;;
33706;SDS011;20583;50.960;5.332;2022-07-23T00:15:25;3.53;;;2.30;;
33706;SDS011;20583;50.960;5.332;2022-07-23T00:17:50;4.78;;;2.50;;
33706;SDS011;20583;50.960;5.332;2022-07-23T00:20:16;7.07;;;3.08;;
33706;SDS011;20583;50.960;5.332;2022-07-23T00:22:46;4.07;;;2.20;;
33706;SDS011;20583;50.960;5.332;2022-07-23T00:25:12;5.57;;;2.63;;
33706;SDS011;20583;50.960;5.332;2022-07-23T00:27:37;4.28;;;2.35;;
33706;SDS011;20583;50.960;5.332;2022-07-23T00:30:03;6.50;;;3.03;;
33706;SDS011;20583;50.960;5.332;2022-07-23T00:32:29;4.97;;;2.65;;
33706;SDS011;20583;50.960;5.332;2022-07-23T00:34:55;3.33;;;2.22;;
33706;SDS011;20583;50.960;5.332;2022-07-23T00:37:20;4.03;;;2.70;;
33706;SDS011;20583;50.960;5.332;2022-07-23T00:39:46;2.60;;;2.30;;
33706;SDS011;20583;50.960;5.332;2022-07-23T00:42:12;3.60;;;2.15;;
33706;SDS011;20583;50.960;5.332;2022-07-23T00:44:37;4.43;;;2.70;;
33706;SDS011;20583;50.960;5.332;2022-07-23T00:47:03;6.43;;;2.80;;
33706;SDS011;20583;50.960;5.332;2022-07-23T00:49:30;5.10;;;2.22;;
33706;SDS011;20583;50.960;5.332;2022-07-23T00:51:56;6.18;;;2.58;;
33706;SDS011;20583;50.960;5.332;2022-07-23T00:54:25;3.60;;;2.30;;
33706;SDS011;20583;50.960;5.332;2022-07-23T00:56:51;4.32;;;2.33;;
33706;SDS011;20583;50.960;5.332;2022-07-23T00:59:17;3.90;;;2.35;;
33706;SDS011;20583;50.960;5.332;2022-07-23T01:01:43;3.78;;;2.38;;
33706;SDS011;20583;50.960;5.332;2022-07-23T01:04:10;5.55;;;2.50;;
33706;SDS011;20583;50.960;5.332;2022-07-23T01:06:37;4.57;;;2.17;;
33706;SDS011;20583;50.960;5.332;2022-07-23T01:09:04;4.00;;;2.33;;
33706;SDS011;20583;50.960;5.332;2022-07-23T01:11:34;3.97;;;2.28;;
33706;SDS011;20583;50.960;5.332;2022-07-23T01:14:07;6.43;;;2.22;;
33706;SDS011;20583;50.960;5.332;2022-07-23T01:16:34;6.57;;;2.28;;
33706;SDS011;20583;50.960;5.332;2022-07-23T01:18:59;3.25;;;2.05;;
33706;SDS011;20583;50.960;5.332;2022-07-23T01:21:25;5.63;;;2.40;;
33706;SDS011;20583;50.960;5.332;2022-07-23T01:23:51;3.92;;;2.78;;
33706;SDS011;20583;50.960;5.332;2022-07-23T01:26:16;3.03;;;2.13;;
33706;SDS011;20583;50.960;5.332;2022-07-23T01:28:42;2.92;;;2.30;;
33706;SDS011;20583;50.960;5.332;2022-07-23T01:31:08;3.38;;;2.22;;
33706;SDS011;20583;50.960;5.332;2022-07-23T01:33:34;4.22;;;2.25;;
33706;SDS011;20583;50.960;5.332;2022-07-23T01:36:00;6.35;;;2.35;;
33706;SDS011;20583;50.960;5.332;2022-07-23T01:38:25;3.05;;;2.25;;
33706;SDS011;20583;50.960;5.332;2022-07-23T01:40:51;3.28;;;2.15;;
33706;SDS011;20583;50.960;5.332;2022-07-23T01:43:16;3.25;;;2.22;;
33706;SDS011;20583;50.960;5.332;2022-07-23T01:45:42;6.47;;;2.03;;
33706;SDS011;20583;50.960;5.332;2022-07-23T01:48:09;2.53;;;2.03;;
33706;SDS011;20583;50.960;5.332;2022-07-23T01:50:35;4.78;;;2.15;;
33706;SDS011;20583;50.960;5.332;2022-07-23T01:53:00;4.47;;;1.95;;
33706;SDS011;20583;50.960;5.332;2022-07-23T01:55:26;6.15;;;2.60;;
33706;SDS011;20583;50.960;5.332;2022-07-23T01:57:52;2.85;;;2.28;;
33706;SDS011;20583;50.960;5.332;2022-07-23T02:00:18;2.65;;;1.98;;
33706;SDS011;20583;50.960;5.332;2022-07-23T02:02:43;3.95;;;1.73;;
33706;SDS011;20583;50.960;5.332;2022-07-23T02:05:09;3.58;;;2.42;;
33706;SDS011;20583;50.960;5.332;2022-07-23T02:07:35;5.13;;;2.05;;
33706;SDS011;20583;50.960;5.332;2022-07-23T02:10:00;3.35;;;2.20;;
33706;SDS011;20583;50.960;5.332;2022-07-23T02:12:26;6.13;;;2.30;;
33706;SDS011;20583;50.960;5.332;2022-07-23T02:14:52;4.35;;;1.90;;
33706;SDS011;20583;50.960;5.332;2022-07-23T02:17:17;3.85;;;2.08;;
33706;SDS011;20583;50.960;5.332;2022-07-23T02:19:43;5.25;;;2.33;;
33706;SDS011;20583;50.960;5.332;2022-07-23T02:22:09;2.63;;;1.73;;
33706;SDS011;20583;50.960;5.332;2022-07-23T02:24:34;3.22;;;1.83;;
33706;SDS011;20583;50.960;5.332;2022-07-23T02:27:00;3.92;;;2.00;;
33706;SDS011;20583;50.960;5.332;2022-07-23T02:29:26;2.67;;;2.03;;
33706;SDS011;20583;50.960;5.332;2022-07-23T02:31:51;6.72;;;1.95;;
33706;SDS011;20583;50.960;5.332;2022-07-23T02:34:17;9.32;;;2.50;;
33706;SDS011;20583;50.960;5.332;2022-07-23T02:36:43;8.32;;;2.00;;
33706;SDS011;20583;50.960;5.332;2022-07-23T02:39:08;3.75;;;1.80;;
33706;SDS011;20583;50.960;5.332;2022-07-23T02:41:34;3.88;;;2.20;;
33706;SDS011;20583;50.960;5.332;2022-07-23T02:44:00;6.97;;;2.10;;
33706;SDS011;20583;50.960;5.332;2022-07-23T02:46:26;4.32;;;1.92;;
33706;SDS011;20583;50.960;5.332;2022-07-23T02:48:51;3.78;;;2.10;;
33706;SDS011;20583;50.960;5.332;2022-07-23T02:51:17;3.90;;;2.33;;
33706;SDS011;20583;50.960;5.332;2022-07-23T02:53:43;3.45;;;1.83;;
33706;SDS011;20583;50.960;5.332;2022-07-23T02:56:08;3.90;;;1.98;;
33706;SDS011;20583;50.960;5.332;2022-07-23T02:58:34;3.97;;;1.80;;
33706;SDS011;20583;50.960;5.332;2022-07-23T03:01:00;5.53;;;2.20;;
33706;SDS011;20583;50.960;5.332;2022-07-23T03:03:26;3.63;;;1.80;;
33706;SDS011;20583;50.960;5.332;2022-07-23T03:05:52;3.22;;;2.05;;
33706;SDS011;20583;50.960;5.332;2022-07-23T03:08:17;5.28;;;1.67;;
33706;SDS011;20583;50.960;5.332;2022-07-23T03:10:43;2.38;;;1.80;;
33706;SDS011;20583;50.960;5.332;2022-07-23T03:13:08;8.40;;;2.05;;
33706;SDS011;20583;50.960;5.332;2022-07-23T03:15:34;3.50;;;2.00;;
33706;SDS011;20583;50.960;5.332;2022-07-23T03:18:00;3.95;;;1.85;;
33706;SDS011;20583;50.960;5.332;2022-07-23T03:20:26;5.90;;;1.85;;
33706;SDS011;20583;50.960;5.332;2022-07-23T03:22:51;3.80;;;1.80;;
33706;SDS011;20583;50.960;5.332;2022-07-23T03:25:17;2.42;;;1.63;;
33706;SDS011;20583;50.960;5.332;2022-07-23T03:27:42;4.65;;;1.77;;
33706;SDS011;20583;50.960;5.332;2022-07-23T03:30:10;2.42;;;1.60;;
33706;SDS011;20583;50.960;5.332;2022-07-23T03:32:36;2.30;;;1.60;;
33706;SDS011;20583;50.960;5.332;2022-07-23T03:35:02;4.10;;;1.70;;
33706;SDS011;20583;50.960;5.332;2022-07-23T03:37:29;4.30;;;2.60;;
33706;SDS011;20583;50.960;5.332;2022-07-23T03:39:55;2.03;;;1.45;;
33706;SDS011;20583;50.960;5.332;2022-07-23T03:42:20;2.65;;;1.75;;
33706;SDS011;20583;50.960;5.332;2022-07-23T03:44:46;3.10;;;1.63;;
33706;SDS011;20583;50.960;5.332;2022-07-23T03:47:12;3.28;;;1.70;;
33706;SDS011;20583;50.960;5.332;2022-07-23T03:49:38;2.25;;;1.48;;
33706;SDS011;20583;50.960;5.332;2022-07-23T03:52:03;2.45;;;1.52;;
33706;SDS011;20583;50.960;5.332;2022-07-23T03:54:29;3.20;;;1.60;;
33706;SDS011;20583;50.960;5.332;2022-07-23T03:56:55;2.58;;;1.50;;
33706;SDS011;20583;50.960;5.332;2022-07-23T03:59:21;2.40;;;1.42;;
33706;SDS011;20583;50.960;5.332;2022-07-23T04:01:47;3.42;;;1.50;;
33706;SDS011;20583;50.960;5.332;2022-07-23T04:04:12;2.53;;;1.40;;
33706;SDS011;20583;50.960;5.332;2022-07-23T04:06:38;1.92;;;1.40;;
33706;SDS011;20583;50.960;5.332;2022-07-23T04:09:04;2.05;;;1.40;;
33706;SDS011;20583;50.960;5.332;2022-07-23T04:11:29;2.58;;;1.30;;
33706;SDS011;20583;50.960;5.332;2022-07-23T04:13:55;2.25;;;1.23;;
33706;SDS011;20583;50.960;5.332;2022-07-23T04:16:21;1.65;;;1.40;;
33706;SDS011;20583;50.960;5.332;2022-07-23T04:18:46;4.05;;;1.40;;
33706;SDS011;20583;50.960;5.332;2022-07-23T04:21:12;3.95;;;1.30;;
33706;SDS011;20583;50.960;5.332;2022-07-23T04:23:38;1.85;;;1.35;;
33706;SDS011;20583;50.960;5.332;2022-07-23T04:26:03;3.63;;;1.33;;
33706;SDS011;20583;50.960;5.332;2022-07-23T04:28:29;3.03;;;1.40;;
33706;SDS011;20583;50.960;5.332;2022-07-23T04:30:58;1.60;;;1.23;;
33706;SDS011;20583;50.960;5.332;2022-07-23T04:33:24;4.53;;;1.77;;
33706;SDS011;20583;50.960;5.332;2022-07-23T04:35:50;13.30;;;1.70;;
33706;SDS011;20583;50.960;5.332;2022-07-23T04:38:15;6.07;;;1.80;;
33706;SDS011;20583;50.960;5.332;2022-07-23T04:40:41;6.53;;;1.80;;
33706;SDS011;20583;50.960;5.332;2022-07-23T04:43:07;4.38;;;1.77;;
33706;SDS011;20583;50.960;5.332;2022-07-23T04:45:32;4.50;;;1.60;;
33706;SDS011;20583;50.960;5.332;2022-07-23T04:47:58;1.63;;;1.42;;
33706;SDS011;20583;50.960;5.332;2022-07-23T04:50:24;6.47;;;1.55;;
33706;SDS011;20583;50.960;5.332;2022-07-23T04:52:50;3.70;;;1.60;;
33706;SDS011;20583;50.960;5.332;2022-07-23T04:55:16;3.90;;;1.70;;
33706;SDS011;20583;50.960;5.332;2022-07-23T04:57:42;6.50;;;1.95;;
33706;SDS011;20583;50.960;5.332;2022-07-23T05:00:08;2.13;;;1.65;;
33706;SDS011;20583;50.960;5.332;2022-07-23T05:02:34;4.75;;;1.90;;
33706;SDS011;20583;50.960;5.332;2022-07-23T05:04:59;2.97;;;1.90;;
33706;SDS011;20583;50.960;5.332;2022-07-23T05:07:25;3.42;;;1.48;;
33706;SDS011;20583;50.960;5.332;2022-07-23T05:09:51;3.85;;;2.00;;
33706;SDS011;20583;50.960;5.332;2022-07-23T05:12:16;2.45;;;1.95;;
33706;SDS011;20583;50.960;5.332;2022-07-23T05:14:42;3.25;;;1.83;;
33706;SDS011;20583;50.960;5.332;2022-07-23T05:17:08;6.88;;;1.80;;
33706;SDS011;20583;50.960;5.332;2022-07-23T05:19:34;4.57;;;1.65;;
33706;SDS011;20583;50.960;5.332;2022-07-23T05:22:00;5.10;;;2.00;;
33706;SDS011;20583;50.960;5.332;2022-07-23T05:24:26;4.47;;;2.00;;
33706;SDS011;20583;50.960;5.332;2022-07-23T05:26:51;6.25;;;2.17;;
33706;SDS011;20583;50.960;5.332;2022-07-23T05:29:17;2.65;;;1.73;;
33706;SDS011;20583;50.960;5.332;2022-07-23T05:31:43;4.68;;;2.00;;
33706;SDS011;20583;50.960;5.332;2022-07-23T05:34:08;4.20;;;2.10;;
33706;SDS011;20583;50.960;5.332;2022-07-23T05:36:34;7.40;;;2.40;;
33706;SDS011;20583;50.960;5.332;2022-07-23T05:39:00;5.47;;;1.73;;
33706;SDS011;20583;50.960;5.332;2022-07-23T05:41:25;4.40;;;2.10;;
33706;SDS011;20583;50.960;5.332;2022-07-23T05:43:51;3.72;;;1.85;;
33706;SDS011;20583;50.960;5.332;2022-07-23T05:46:17;4.47;;;1.95;;
33706;SDS011;20583;50.960;5.332;2022-07-23T05:48:42;4.57;;;1.85;;
33706;SDS011;20583;50.960;5.332;2022-07-23T05:51:11;8.45;;;2.30;;
33706;SDS011;20583;50.960;5.332;2022-07-23T05:53:36;3.55;;;1.90;;
33706;SDS011;20583;50.960;5.332;2022-07-23T05:56:03;6.28;;;2.10;;
33706;SDS011;20583;50.960;5.332;2022-07-23T05:58:29;6.70;;;1.90;;
33706;SDS011;20583;50.960;5.332;2022-07-23T06:00:55;8.32;;;2.50;;
33706;SDS011;20583;50.960;5.332;2022-07-23T06:03:20;3.85;;;2.05;;
33706;SDS011;20583;50.960;5.332;2022-07-23T06:05:46;9.32;;;2.30;;
33706;SDS011;20583;50.960;5.332;2022-07-23T06:08:12;4.72;;;2.88;;
33706;SDS011;20583;50.960;5.332;2022-07-23T06:10:38;6.13;;;2.65;;
33706;SDS011;20583;50.960;5.332;2022-07-23T06:13:03;5.13;;;3.00;;
33706;SDS011;20583;50.960;5.332;2022-07-23T06:15:29;9.63;;;3.45;;
33706;SDS011;20583;50.960;5.332;2022-07-23T06:17:55;6.18;;;3.10;;
33706;SDS011;20583;50.960;5.332;2022-07-23T06:20:21;5.35;;;3.40;;
33706;SDS011;20583;50.960;5.332;2022-07-23T06:22:47;7.97;;;3.15;;
33706;SDS011;20583;50.960;5.332;2022-07-23T06:25:12;7.22;;;3.38;;
33706;SDS011;20583;50.960;5.332;2022-07-23T06:27:38;5.45;;;2.80;;
33706;SDS011;20583;50.960;5.332;2022-07-23T06:30:04;2.92;;;2.20;;
33706;SDS011;20583;50.960;5.332;2022-07-23T06:32:30;5.90;;;2.90;;
33706;SDS011;20583;50.960;5.332;2022-07-23T06:34:56;6.40;;;3.25;;
33706;SDS011;20583;50.960;5.332;2022-07-23T06:37:22;9.60;;;2.80;;
33706;SDS011;20583;50.960;5.332;2022-07-23T06:39:47;10.50;;;2.97;;
33706;SDS011;20583;50.960;5.332;2022-07-23T06:42:13;11.40;;;3.42;;
33706;SDS011;20583;50.960;5.332;2022-07-23T06:44:39;11.68;;;3.53;;
33706;SDS011;20583;50.960;5.332;2022-07-23T06:47:06;13.85;;;3.40;;
33706;SDS011;20583;50.960;5.332;2022-07-23T06:49:32;6.15;;;3.95;;
33706;SDS011;20583;50.960;5.332;2022-07-23T06:51:58;12.05;;;4.50;;
33706;SDS011;20583;50.960;5.332;2022-07-23T06:54:24;18.52;;;3.90;;
33706;SDS011;20583;50.960;5.332;2022-07-23T06:56:50;5.60;;;4.70;;
33706;SDS011;20583;50.960;5.332;2022-07-23T06:59:15;10.90;;;4.80;;
33706;SDS011;20583;50.960;5.332;2022-07-23T07:01:41;14.23;;;4.50;;
33706;SDS011;20583;50.960;5.332;2022-07-23T07:04:07;8.52;;;4.55;;
33706;SDS011;20583;50.960;5.332;2022-07-23T07:06:32;10.55;;;6.00;;
33706;SDS011;20583;50.960;5.332;2022-07-23T07:08:58;11.20;;;5.05;;
33706;SDS011;20583;50.960;5.332;2022-07-23T07:11:23;11.43;;;4.63;;
33706;SDS011;20583;50.960;5.332;2022-07-23T07:13:50;15.80;;;5.40;;
33706;SDS011;20583;50.960;5.332;2022-07-23T07:16:16;10.70;;;5.43;;
33706;SDS011;20583;50.960;5.332;2022-07-23T07:18:42;11.13;;;5.88;;
33706;SDS011;20583;50.960;5.332;2022-07-23T07:21:08;9.95;;;6.10;;
33706;SDS011;20583;50.960;5.332;2022-07-23T07:23:33;15.80;;;5.28;;
33706;SDS011;20583;50.960;5.332;2022-07-23T07:25:59;19.52;;;5.43;;
33706;SDS011;20583;50.960;5.332;2022-07-23T07:28:25;16.63;;;6.03;;
33706;SDS011;20583;50.960;5.332;2022-07-23T07:30:51;12.43;;;5.60;;
33706;SDS011;20583;50.960;5.332;2022-07-23T07:33:16;12.23;;;4.65;;
33706;SDS011;20583;50.960;5.332;2022-07-23T07:35:42;9.15;;;4.57;;
33706;SDS011;20583;50.960;5.332;2022-07-23T07:38:08;10.18;;;5.10;;
33706;SDS011;20583;50.960;5.332;2022-07-23T07:40:34;9.65;;;5.57;;
33706;SDS011;20583;50.960;5.332;2022-07-23T07:42:59;12.57;;;4.55;;
33706;SDS011;20583;50.960;5.332;2022-07-23T07:45:26;14.95;;;4.32;;
33706;SDS011;20583;50.960;5.332;2022-07-23T07:47:52;12.48;;;5.10;;
33706;SDS011;20583;50.960;5.332;2022-07-23T07:50:20;9.13;;;4.50;;
33706;SDS011;20583;50.960;5.332;2022-07-23T07:52:46;10.70;;;5.13;;
33706;SDS011;20583;50.960;5.332;2022-07-23T07:55:12;9.10;;;4.65;;
33706;SDS011;20583;50.960;5.332;2022-07-23T07:57:39;10.00;;;4.90;;
33706;SDS011;20583;50.960;5.332;2022-07-23T08:00:05;10.75;;;4.97;;
33706;SDS011;20583;50.960;5.332;2022-07-23T08:05:18;11.73;;;6.05;;
33706;SDS011;20583;50.960;5.332;2022-07-23T08:07:44;9.98;;;6.43;;
33706;SDS011;20583;50.960;5.332;2022-07-23T08:10:10;15.13;;;5.03;;
33706;SDS011;20583;50.960;5.332;2022-07-23T08:12:43;14.00;;;6.60;;
33706;SDS011;20583;50.960;5.332;2022-07-23T08:15:11;10.88;;;5.70;;
33706;SDS011;20583;50.960;5.332;2022-07-23T08:17:42;10.60;;;6.18;;
33706;SDS011;20583;50.960;5.332;2022-07-23T08:20:09;11.10;;;6.47;;
33706;SDS011;20583;50.960;5.332;2022-07-23T08:22:49;18.25;;;6.93;;
33706;SDS011;20583;50.960;5.332;2022-07-23T08:25:20;13.85;;;5.82;;
33706;SDS011;20583;50.960;5.332;2022-07-23T08:27:48;7.80;;;4.60;;
33706;SDS011;20583;50.960;5.332;2022-07-23T08:30:14;12.70;;;4.93;;
33706;SDS011;20583;50.960;5.332;2022-07-23T08:35:24;11.68;;;5.82;;
33706;SDS011;20583;50.960;5.332;2022-07-23T08:37:59;21.35;;;4.90;;
33706;SDS011;20583;50.960;5.332;2022-07-23T08:40:26;12.75;;;4.63;;
33706;SDS011;20583;50.960;5.332;2022-07-23T08:42:54;14.50;;;4.35;;
33706;SDS011;20583;50.960;5.332;2022-07-23T08:45:21;9.63;;;4.45;;
33706;SDS011;20583;50.960;5.332;2022-07-23T08:47:58;12.43;;;4.35;;
33706;SDS011;20583;50.960;5.332;2022-07-23T08:50:24;10.93;;;4.53;;
33706;SDS011;20583;50.960;5.332;2022-07-23T08:52:50;8.32;;;4.20;;
33706;SDS011;20583;50.960;5.332;2022-07-23T08:55:17;7.88;;;4.05;;
33706;SDS011;20583;50.960;5.332;2022-07-23T08:57:45;10.65;;;4.53;;
33706;SDS011;20583;50.960;5.332;2022-07-23T09:00:16;8.43;;;5.05;;
33706;SDS011;20583;50.960;5.332;2022-07-23T09:02:43;6.70;;;3.72;;
33706;SDS011;20583;50.960;5.332;2022-07-23T09:05:10;11.23;;;4.43;;
33706;SDS011;20583;50.960;5.332;2022-07-23T09:07:38;8.60;;;4.55;;
33706;SDS011;20583;50.960;5.332;2022-07-23T09:10:49;9.20;;;4.15;;
33706;SDS011;20583;50.960;5.332;2022-07-23T09:13:34;9.45;;;3.80;;
33706;SDS011;20583;50.960;5.332;2022-07-23T09:16:06;8.23;;;3.85;;
33706;SDS011;20583;50.960;5.332;2022-07-23T09:18:39;8.80;;;4.18;;
33706;SDS011;20583;50.960;5.332;2022-07-23T09:21:09;14.77;;;6.40;;
33706;SDS011;20583;50.960;5.332;2022-07-23T09:23:42;17.55;;;6.43;;
33706;SDS011;20583;50.960;5.332;2022-07-23T09:26:17;10.80;;;5.38;;
33706;SDS011;20583;50.960;5.332;2022-07-23T09:28:49;11.15;;;5.90;;
33706;SDS011;20583;50.960;5.332;2022-07-23T09:31:16;17.65;;;6.13;;
33706;SDS011;20583;50.960;5.332;2022-07-23T09:33:41;10.20;;;5.13;;
33706;SDS011;20583;50.960;5.332;2022-07-23T09:36:07;8.38;;;4.50;;
33706;SDS011;20583;50.960;5.332;2022-07-23T09:38:34;8.75;;;5.00;;
33706;SDS011;20583;50.960;5.332;2022-07-23T09:41:12;8.20;;;4.68;;
33706;SDS011;20583;50.960;5.332;2022-07-23T09:43:38;10.07;;;5.40;;
33706;SDS011;20583;50.960;5.332;2022-07-23T09:48:54;6.60;;;4.00;;
33706;SDS011;20583;50.960;5.332;2022-07-23T09:51:21;14.55;;;4.03;;
33706;SDS011;20583;50.960;5.332;2022-07-23T09:54:03;10.35;;;5.43;;
33706;SDS011;20583;50.960;5.332;2022-07-23T09:56:29;8.68;;;4.78;;
33706;SDS011;20583;50.960;5.332;2022-07-23T09:58:56;16.73;;;5.78;;
33706;SDS011;20583;50.960;5.332;2022-07-23T10:01:31;7.80;;;5.07;;
33706;SDS011;20583;50.960;5.332;2022-07-23T10:03:57;10.25;;;5.82;;
33706;SDS011;20583;50.960;5.332;2022-07-23T10:06:24;11.07;;;5.55;;
33706;SDS011;20583;50.960;5.332;2022-07-23T10:08:50;9.43;;;4.53;;
33706;SDS011;20583;50.960;5.332;2022-07-23T10:11:22;10.15;;;4.78;;
33706;SDS011;20583;50.960;5.332;2022-07-23T10:13:49;9.23;;;3.90;;
33706;SDS011;20583;50.960;5.332;2022-07-23T10:18:49;8.77;;;3.53;;
33706;SDS011;20583;50.960;5.332;2022-07-23T10:21:23;6.50;;;3.30;;
33706;SDS011;20583;50.960;5.332;2022-07-23T10:24:10;5.82;;;2.80;;
33706;SDS011;20583;50.960;5.332;2022-07-23T10:36:23;4.35;;;2.30;;
33706;SDS011;20583;50.960;5.332;2022-07-23T10:41:30;4.75;;;2.40;;
33706;SDS011;20583;50.960;5.332;2022-07-23T10:53:22;3.58;;;2.55;;
33706;SDS011;20583;50.960;5.332;2022-07-23T10:55:43;6.63;;;2.50;;
33706;SDS011;20583;50.960;5.332;2022-07-23T10:58:20;9.68;;;2.72;;
33706;SDS011;20583;50.960;5.332;2022-07-23T11:00:48;10.95;;;3.20;;
33706;SDS011;20583;50.960;5.332;2022-07-23T11:03:28;8.60;;;3.05;;
33706;SDS011;20583;50.960;5.332;2022-07-23T11:05:53;9.40;;;2.83;;
33706;SDS011;20583;50.960;5.332;2022-07-23T11:08:19;5.32;;;2.55;;
33706;SDS011;20583;50.960;5.332;2022-07-23T11:10:46;12.15;;;2.80;;
33706;SDS011;20583;50.960;5.332;2022-07-23T11:16:21;3.70;;;2.25;;
33706;SDS011;20583;50.960;5.332;2022-07-23T11:31:51;8.15;;;1.88;;
33706;SDS011;20583;50.960;5.332;2022-07-23T11:34:28;2.90;;;1.52;;
33706;SDS011;20583;50.960;5.332;2022-07-23T11:37:00;4.38;;;2.00;;
33706;SDS011;20583;50.960;5.332;2022-07-23T11:39:28;3.47;;;1.80;;
33706;SDS011;20583;50.960;5.332;2022-07-23T11:41:56;3.65;;;1.63;;
33706;SDS011;20583;50.960;5.332;2022-07-23T11:44:29;4.55;;;1.65;;
33706;SDS011;20583;50.960;5.332;2022-07-23T11:49:29;1.98;;;1.63;;
33706;SDS011;20583;50.960;5.332;2022-07-23T11:52:12;5.22;;;1.75;;
33706;SDS011;20583;50.960;5.332;2022-07-23T11:57:17;1.65;;;1.40;;
33706;SDS011;20583;50.960;5.332;2022-07-23T11:59:45;2.70;;;1.02;;
33706;SDS011;20583;50.960;5.332;2022-07-23T12:02:14;4.45;;;1.20;;
33706;SDS011;20583;50.960;5.332;2022-07-23T12:04:45;1.50;;;1.10;;
33706;SDS011;20583;50.960;5.332;2022-07-23T12:07:23;3.13;;;1.60;;
33706;SDS011;20583;50.960;5.332;2022-07-23T12:09:55;3.75;;;1.30;;
33706;SDS011;20583;50.960;5.332;2022-07-23T12:12:22;5.32;;;1.45;;
33706;SDS011;20583;50.960;5.332;2022-07-23T12:14:52;2.20;;;1.20;;
33706;SDS011;20583;50.960;5.332;2022-07-23T12:17:29;1.38;;;0.93;;
33706;SDS011;20583;50.960;5.332;2022-07-23T12:19:58;2.55;;;1.20;;
33706;SDS011;20583;50.960;5.332;2022-07-23T12:22:26;3.67;;;1.30;;
33706;SDS011;20583;50.960;5.332;2022-07-23T12:25:03;2.40;;;1.30;;
33706;SDS011;20583;50.960;5.332;2022-07-23T12:27:33;2.40;;;1.40;;
33706;SDS011;20583;50.960;5.332;2022-07-23T12:30:14;4.53;;;1.40;;
33706;SDS011;20583;50.960;5.332;2022-07-23T12:32:42;6.88;;;1.10;;
33706;SDS011;20583;50.960;5.332;2022-07-23T12:35:10;2.10;;;1.27;;
33706;SDS011;20583;50.960;5.332;2022-07-23T12:37:36;4.72;;;1.33;;
33706;SDS011;20583;50.960;5.332;2022-07-23T12:43:05;2.97;;;1.25;;
33706;SDS011;20583;50.960;5.332;2022-07-23T12:45:43;5.60;;;1.42;;
33706;SDS011;20583;50.960;5.332;2022-07-23T12:48:15;2.35;;;1.30;;
33706;SDS011;20583;50.960;5.332;2022-07-23T12:50:58;1.88;;;1.52;;
33706;SDS011;20583;50.960;5.332;2022-07-23T12:53:29;2.65;;;1.30;;
33706;SDS011;20583;50.960;5.332;2022-07-23T12:56:18;3.67;;;1.50;;
33706;SDS011;20583;50.960;5.332;2022-07-23T12:58:47;3.83;;;1.40;;
33706;SDS011;20583;50.960;5.332;2022-07-23T13:01:41;2.35;;;1.33;;
33706;SDS011;20583;50.960;5.332;2022-07-23T13:04:21;4.28;;;1.52;;
33706;SDS011;20583;50.960;5.332;2022-07-23T13:06:51;4.10;;;1.33;;
33706;SDS011;20583;50.960;5.332;2022-07-23T13:09:27;2.03;;;1.20;;
33706;SDS011;20583;50.960;5.332;2022-07-23T13:11:54;2.85;;;1.38;;
33706;SDS011;20583;50.960;5.332;2022-07-23T13:14:21;4.65;;;1.50;;
33706;SDS011;20583;50.960;5.332;2022-07-23T13:16:48;5.47;;;1.80;;
33706;SDS011;20583;50.960;5.332;2022-07-23T13:19:16;3.40;;;1.67;;
33706;SDS011;20583;50.960;5.332;2022-07-23T13:21:42;3.78;;;2.15;;
33706;SDS011;20583;50.960;5.332;2022-07-23T13:24:08;2.35;;;1.45;;
33706;SDS011;20583;50.960;5.332;2022-07-23T13:26:35;3.80;;;1.77;;
33706;SDS011;20583;50.960;5.332;2022-07-23T13:29:02;2.28;;;1.30;;
33706;SDS011;20583;50.960;5.332;2022-07-23T13:31:28;2.47;;;1.88;;
33706;SDS011;20583;50.960;5.332;2022-07-23T13:33:53;2.20;;;1.65;;
33706;SDS011;20583;50.960;5.332;2022-07-23T13:36:19;2.05;;;1.50;;
33706;SDS011;20583;50.960;5.332;2022-07-23T13:38:45;2.08;;;1.40;;
33706;SDS011;20583;50.960;5.332;2022-07-23T13:41:11;1.88;;;1.33;;
33706;SDS011;20583;50.960;5.332;2022-07-23T13:43:36;6.88;;;1.60;;
33706;SDS011;20583;50.960;5.332;2022-07-23T13:46:02;4.47;;;1.63;;
33706;SDS011;20583;50.960;5.332;2022-07-23T13:48:28;3.47;;;1.70;;
33706;SDS011;20583;50.960;5.332;2022-07-23T13:50:54;1.83;;;1.40;;
33706;SDS011;20583;50.960;5.332;2022-07-23T13:53:21;4.07;;;1.95;;
33706;SDS011;20583;50.960;5.332;2022-07-23T13:55:49;3.83;;;1.70;;
33706;SDS011;20583;50.960;5.332;2022-07-23T13:58:16;3.33;;;1.73;;
33706;SDS011;20583;50.960;5.332;2022-07-23T14:00:44;1.75;;;1.65;;
33706;SDS011;20583;50.960;5.332;2022-07-23T14:03:12;2.55;;;1.42;;
33706;SDS011;20583;50.960;5.332;2022-07-23T14:05:38;3.65;;;1.65;;
33706;SDS011;20583;50.960;5.332;2022-07-23T14:08:04;3.78;;;1.92;;
33706;SDS011;20583;50.960;5.332;2022-07-23T14:10:31;2.13;;;1.67;;
33706;SDS011;20583;50.960;5.332;2022-07-23T14:12:57;5.38;;;1.80;;
33706;SDS011;20583;50.960;5.332;2022-07-23T14:15:24;3.95;;;2.10;;
33706;SDS011;20583;50.960;5.332;2022-07-23T14:17:51;7.32;;;1.60;;
33706;SDS011;20583;50.960;5.332;2022-07-23T14:20:17;6.72;;;1.90;;
33706;SDS011;20583;50.960;5.332;2022-07-23T14:22:44;5.63;;;1.90;;
33706;SDS011;20583;50.960;5.332;2022-07-23T14:25:09;7.65;;;1.83;;
33706;SDS011;20583;50.960;5.332;2022-07-23T14:27:36;5.97;;;1.90;;
33706;SDS011;20583;50.960;5.332;2022-07-23T14:30:05;3.85;;;1.75;;
33706;SDS011;20583;50.960;5.332;2022-07-23T14:32:31;4.05;;;2.08;;
33706;SDS011;20583;50.960;5.332;2022-07-23T14:34:57;10.95;;;2.25;;
33706;SDS011;20583;50.960;5.332;2022-07-23T14:37:23;3.78;;;1.67;;
33706;SDS011;20583;50.960;5.332;2022-07-23T14:39:50;5.03;;;1.80;;
33706;SDS011;20583;50.960;5.332;2022-07-23T14:42:16;7.22;;;2.03;;
33706;SDS011;20583;50.960;5.332;2022-07-23T14:44:42;5.68;;;2.00;;
33706;SDS011;20583;50.960;5.332;2022-07-23T14:47:08;3.92;;;1.77;;
33706;SDS011;20583;50.960;5.332;2022-07-23T14:49:34;7.78;;;1.80;;
33706;SDS011;20583;50.960;5.332;2022-07-23T14:52:00;3.35;;;1.85;;
33706;SDS011;20583;50.960;5.332;2022-07-23T14:54:27;10.00;;;2.58;;
33706;SDS011;20583;50.960;5.332;2022-07-23T14:56:54;4.78;;;2.00;;
33706;SDS011;20583;50.960;5.332;2022-07-23T14:59:21;2.83;;;1.85;;
33706;SDS011;20583;50.960;5.332;2022-07-23T15:01:47;5.13;;;1.75;;
33706;SDS011;20583;50.960;5.332;2022-07-23T15:04:14;3.70;;;1.88;;
33706;SDS011;20583;50.960;5.332;2022-07-23T15:06:40;7.97;;;2.22;;
33706;SDS011;20583;50.960;5.332;2022-07-23T15:09:06;6.32;;;2.00;;
33706;SDS011;20583;50.960;5.332;2022-07-23T15:11:32;5.78;;;2.00;;
33706;SDS011;20583;50.960;5.332;2022-07-23T15:13:59;14.15;;;2.00;;
33706;SDS011;20583;50.960;5.332;2022-07-23T15:16:25;6.13;;;2.05;;
33706;SDS011;20583;50.960;5.332;2022-07-23T15:18:52;9.13;;;1.92;;
33706;SDS011;20583;50.960;5.332;2022-07-23T15:21:17;14.65;;;2.10;;
33706;SDS011;20583;50.960;5.332;2022-07-23T15:23:43;5.18;;;2.10;;
33706;SDS011;20583;50.960;5.332;2022-07-23T15:26:09;5.95;;;2.45;;
33706;SDS011;20583;50.960;5.332;2022-07-23T15:28:35;10.52;;;2.05;;
33706;SDS011;20583;50.960;5.332;2022-07-23T15:31:01;4.35;;;2.08;;
33706;SDS011;20583;50.960;5.332;2022-07-23T15:33:27;4.57;;;1.98;;
33706;SDS011;20583;50.960;5.332;2022-07-23T15:35:53;4.78;;;2.10;;
33706;SDS011;20583;50.960;5.332;2022-07-23T15:38:21;5.40;;;2.25;;
33706;SDS011;20583;50.960;5.332;2022-07-23T15:40:47;5.93;;;2.10;;
33706;SDS011;20583;50.960;5.332;2022-07-23T15:43:13;5.13;;;2.35;;